sensor_id;sensor_type;location;lat;lon;timestamp;P1;durP1;ratioP1;P2;durP2;ratioP2
12052;SDS011;6087;48.982;12.064;2023-11-21T00:02:24;4.30;;;2.30;;
12052;SDS011;6087;48.982;12.064;2023-11-21T00:04:52;4.43;;;1.90;;
12052;SDS011;6087;48.982;12.064;2023-11-21T00:07:19;5.43;;;2.10;;
12052;SDS011;6087;48.982;12.064;2023-11-21T00:09:46;2.97;;;2.60;;
12052;SDS011;6087;48.982;12.064;2023-11-21T00:12:13;2.17;;;1.63;;
12052;SDS011;6087;48.982;12.064;2023-11-21T00:14:40;7.00;;;2.40;;
12052;SDS011;6087;48.982;12.064;2023-11-21T00:17:08;3.97;;;2.30;;
12052;SDS011;6087;48.982;12.064;2023-11-21T00:19:35;7.53;;;2.60;;
12052;SDS011;6087;48.982;12.064;2023-11-21T00:22:02;5.83;;;2.87;;
12052;SDS011;6087;48.982;12.064;2023-11-21T00:24:31;3.07;;;2.40;;
12052;SDS011;6087;48.982;12.064;2023-11-21T00:26:58;7.97;;;2.70;;
12052;SDS011;6087;48.982;12.064;2023-11-21T00:29:25;4.30;;;2.70;;
12052;SDS011;6087;48.982;12.064;2023-11-21T00:31:52;4.53;;;2.20;;
12052;SDS011;6087;48.982;12.064;2023-11-21T00:34:20;6.73;;;2.37;;
12052;SDS011;6087;48.982;12.064;2023-11-21T00:36:47;4.20;;;2.47;;
12052;SDS011;6087;48.982;12.064;2023-11-21T00:39:14;4.93;;;2.73;;
12052;SDS011;6087;48.982;12.064;2023-11-21T00:41:41;5.90;;;2.63;;
12052;SDS011;6087;48.982;12.064;2023-11-21T00:44:09;5.93;;;2.33;;
12052;SDS011;6087;48.982;12.064;2023-11-21T00:46:36;2.97;;;2.40;;
12052;SDS011;6087;48.982;12.064;2023-11-21T00:49:03;4.63;;;2.73;;
12052;SDS011;6087;48.982;12.064;2023-11-21T00:51:32;5.70;;;2.50;;
12052;SDS011;6087;48.982;12.064;2023-11-21T00:53:58;5.23;;;2.73;;
12052;SDS011;6087;48.982;12.064;2023-11-21T00:56:26;14.20;;;3.50;;
12052;SDS011;6087;48.982;12.064;2023-11-21T00:58:53;3.07;;;2.43;;
12052;SDS011;6087;48.982;12.064;2023-11-21T01:01:20;4.83;;;2.47;;
12052;SDS011;6087;48.982;12.064;2023-11-21T01:03:48;4.50;;;2.80;;
12052;SDS011;6087;48.982;12.064;2023-11-21T01:06:15;2.70;;;2.10;;
12052;SDS011;6087;48.982;12.064;2023-11-21T01:08:43;3.77;;;2.37;;
12052;SDS011;6087;48.982;12.064;2023-11-21T01:11:10;7.13;;;2.33;;
12052;SDS011;6087;48.982;12.064;2023-11-21T01:13:38;5.97;;;2.63;;
12052;SDS011;6087;48.982;12.064;2023-11-21T01:16:08;5.17;;;2.67;;
12052;SDS011;6087;48.982;12.064;2023-11-21T01:18:35;2.70;;;2.30;;
12052;SDS011;6087;48.982;12.064;2023-11-21T01:21:02;5.00;;;3.07;;
12052;SDS011;6087;48.982;12.064;2023-11-21T01:23:30;5.33;;;2.30;;
12052;SDS011;6087;48.982;12.064;2023-11-21T01:25:58;3.23;;;2.40;;
12052;SDS011;6087;48.982;12.064;2023-11-21T01:28:25;8.07;;;2.30;;
12052;SDS011;6087;48.982;12.064;2023-11-21T01:30:52;6.27;;;2.73;;
12052;SDS011;6087;48.982;12.064;2023-11-21T01:33:21;3.43;;;2.50;;
12052;SDS011;6087;48.982;12.064;2023-11-21T01:35:50;8.53;;;2.40;;
12052;SDS011;6087;48.982;12.064;2023-11-21T01:38:20;5.17;;;2.23;;
12052;SDS011;6087;48.982;12.064;2023-11-21T01:40:48;3.73;;;2.40;;
12052;SDS011;6087;48.982;12.064;2023-11-21T01:43:16;3.23;;;2.20;;
12052;SDS011;6087;48.982;12.064;2023-11-21T01:45:43;5.13;;;2.60;;
12052;SDS011;6087;48.982;12.064;2023-11-21T01:48:13;8.03;;;3.03;;
12052;SDS011;6087;48.982;12.064;2023-11-21T01:50:41;3.53;;;2.70;;
12052;SDS011;6087;48.982;12.064;2023-11-21T01:53:10;5.73;;;2.20;;
12052;SDS011;6087;48.982;12.064;2023-11-21T01:55:44;5.27;;;2.40;;
12052;SDS011;6087;48.982;12.064;2023-11-21T01:58:12;5.27;;;2.70;;
12052;SDS011;6087;48.982;12.064;2023-11-21T02:00:41;4.20;;;2.50;;
12052;SDS011;6087;48.982;12.064;2023-11-21T02:03:08;2.33;;;2.07;;
12052;SDS011;6087;48.982;12.064;2023-11-21T02:05:37;4.77;;;2.30;;
12052;SDS011;6087;48.982;12.064;2023-11-21T02:08:09;3.23;;;2.57;;
12052;SDS011;6087;48.982;12.064;2023-11-21T02:10:36;4.60;;;1.97;;
12052;SDS011;6087;48.982;12.064;2023-11-21T02:13:03;5.57;;;2.53;;
12052;SDS011;6087;48.982;12.064;2023-11-21T02:15:31;4.10;;;2.10;;
12052;SDS011;6087;48.982;12.064;2023-11-21T02:17:59;4.63;;;2.30;;
12052;SDS011;6087;48.982;12.064;2023-11-21T02:20:28;3.73;;;1.90;;
12052;SDS011;6087;48.982;12.064;2023-11-21T02:22:56;4.00;;;1.87;;
12052;SDS011;6087;48.982;12.064;2023-11-21T02:25:24;5.10;;;2.17;;
12052;SDS011;6087;48.982;12.064;2023-11-21T02:27:52;5.50;;;2.73;;
12052;SDS011;6087;48.982;12.064;2023-11-21T02:30:20;7.10;;;2.20;;
12052;SDS011;6087;48.982;12.064;2023-11-21T02:32:47;6.63;;;2.30;;
12052;SDS011;6087;48.982;12.064;2023-11-21T02:35:14;7.17;;;3.13;;
12052;SDS011;6087;48.982;12.064;2023-11-21T02:37:42;5.53;;;2.13;;
12052;SDS011;6087;48.982;12.064;2023-11-21T02:40:10;3.47;;;2.03;;
12052;SDS011;6087;48.982;12.064;2023-11-21T02:42:39;6.37;;;2.17;;
12052;SDS011;6087;48.982;12.064;2023-11-21T02:45:06;3.00;;;1.93;;
12052;SDS011;6087;48.982;12.064;2023-11-21T02:47:34;2.43;;;1.70;;
12052;SDS011;6087;48.982;12.064;2023-11-21T02:50:01;2.97;;;2.10;;
12052;SDS011;6087;48.982;12.064;2023-11-21T02:52:28;5.10;;;1.93;;
12052;SDS011;6087;48.982;12.064;2023-11-21T02:54:58;3.80;;;1.73;;
12052;SDS011;6087;48.982;12.064;2023-11-21T02:57:26;2.27;;;1.70;;
12052;SDS011;6087;48.982;12.064;2023-11-21T02:59:53;3.70;;;1.80;;
12052;SDS011;6087;48.982;12.064;2023-11-21T03:02:20;3.77;;;1.87;;
12052;SDS011;6087;48.982;12.064;2023-11-21T03:04:48;4.77;;;2.17;;
12052;SDS011;6087;48.982;12.064;2023-11-21T03:07:15;5.07;;;1.87;;
12052;SDS011;6087;48.982;12.064;2023-11-21T03:09:44;6.33;;;2.20;;
12052;SDS011;6087;48.982;12.064;2023-11-21T03:12:13;3.63;;;2.10;;
12052;SDS011;6087;48.982;12.064;2023-11-21T03:14:42;4.37;;;2.33;;
12052;SDS011;6087;48.982;12.064;2023-11-21T03:17:09;3.03;;;1.93;;
12052;SDS011;6087;48.982;12.064;2023-11-21T03:19:40;4.93;;;2.50;;
12052;SDS011;6087;48.982;12.064;2023-11-21T03:22:08;3.33;;;1.63;;
12052;SDS011;6087;48.982;12.064;2023-11-21T03:24:35;4.30;;;1.97;;
12052;SDS011;6087;48.982;12.064;2023-11-21T03:27:03;3.00;;;1.80;;
12052;SDS011;6087;48.982;12.064;2023-11-21T03:29:30;3.00;;;2.67;;
12052;SDS011;6087;48.982;12.064;2023-11-21T03:31:59;2.17;;;1.90;;
12052;SDS011;6087;48.982;12.064;2023-11-21T03:34:26;5.20;;;2.17;;
12052;SDS011;6087;48.982;12.064;2023-11-21T03:36:53;3.03;;;1.70;;
12052;SDS011;6087;48.982;12.064;2023-11-21T03:39:21;3.00;;;2.07;;
12052;SDS011;6087;48.982;12.064;2023-11-21T03:41:48;4.20;;;2.20;;
12052;SDS011;6087;48.982;12.064;2023-11-21T03:44:16;5.53;;;2.33;;
12052;SDS011;6087;48.982;12.064;2023-11-21T03:46:44;4.17;;;2.40;;
12052;SDS011;6087;48.982;12.064;2023-11-21T03:49:12;2.20;;;2.00;;
12052;SDS011;6087;48.982;12.064;2023-11-21T03:51:39;3.20;;;1.87;;
12052;SDS011;6087;48.982;12.064;2023-11-21T03:54:06;3.17;;;2.20;;
12052;SDS011;6087;48.982;12.064;2023-11-21T03:56:33;3.50;;;1.73;;
12052;SDS011;6087;48.982;12.064;2023-11-21T03:58:58;3.87;;;2.00;;
12052;SDS011;6087;48.982;12.064;2023-11-21T04:01:25;5.57;;;2.50;;
12052;SDS011;6087;48.982;12.064;2023-11-21T04:03:52;3.57;;;2.40;;
12052;SDS011;6087;48.982;12.064;2023-11-21T04:06:21;4.23;;;2.17;;
12052;SDS011;6087;48.982;12.064;2023-11-21T04:08:48;3.63;;;2.00;;
12052;SDS011;6087;48.982;12.064;2023-11-21T04:11:14;4.83;;;2.33;;
12052;SDS011;6087;48.982;12.064;2023-11-21T04:13:42;2.43;;;1.90;;
12052;SDS011;6087;48.982;12.064;2023-11-21T04:16:09;5.73;;;2.53;;
12052;SDS011;6087;48.982;12.064;2023-11-21T04:18:36;3.83;;;2.60;;
12052;SDS011;6087;48.982;12.064;2023-11-21T04:21:07;5.77;;;2.80;;
12052;SDS011;6087;48.982;12.064;2023-11-21T04:23:36;3.97;;;3.17;;
12052;SDS011;6087;48.982;12.064;2023-11-21T04:26:13;5.23;;;3.30;;
12052;SDS011;6087;48.982;12.064;2023-11-21T04:28:40;5.40;;;3.50;;
12052;SDS011;6087;48.982;12.064;2023-11-21T04:31:13;4.97;;;3.43;;
12052;SDS011;6087;48.982;12.064;2023-11-21T04:33:40;4.40;;;3.53;;
12052;SDS011;6087;48.982;12.064;2023-11-21T04:36:07;4.70;;;3.07;;
12052;SDS011;6087;48.982;12.064;2023-11-21T04:38:37;7.27;;;3.50;;
12052;SDS011;6087;48.982;12.064;2023-11-21T04:41:04;4.03;;;3.43;;
12052;SDS011;6087;48.982;12.064;2023-11-21T04:43:31;6.20;;;3.60;;
12052;SDS011;6087;48.982;12.064;2023-11-21T04:45:58;5.47;;;3.40;;
12052;SDS011;6087;48.982;12.064;2023-11-21T04:48:25;4.53;;;3.93;;
12052;SDS011;6087;48.982;12.064;2023-11-21T04:50:52;4.90;;;3.30;;
12052;SDS011;6087;48.982;12.064;2023-11-21T04:53:19;4.20;;;3.80;;
12052;SDS011;6087;48.982;12.064;2023-11-21T04:55:47;9.10;;;4.03;;
12052;SDS011;6087;48.982;12.064;2023-11-21T04:58:14;7.60;;;4.23;;
12052;SDS011;6087;48.982;12.064;2023-11-21T05:00:41;7.13;;;3.80;;
12052;SDS011;6087;48.982;12.064;2023-11-21T05:03:09;5.93;;;3.33;;
12052;SDS011;6087;48.982;12.064;2023-11-21T05:05:36;5.07;;;3.67;;
12052;SDS011;6087;48.982;12.064;2023-11-21T05:08:03;5.03;;;3.67;;
12052;SDS011;6087;48.982;12.064;2023-11-21T05:10:30;5.73;;;3.80;;
12052;SDS011;6087;48.982;12.064;2023-11-21T05:12:59;7.97;;;3.97;;
12052;SDS011;6087;48.982;12.064;2023-11-21T05:15:26;8.17;;;4.03;;
12052;SDS011;6087;48.982;12.064;2023-11-21T05:17:53;3.97;;;3.07;;
12052;SDS011;6087;48.982;12.064;2023-11-21T05:20:20;4.77;;;3.87;;
12052;SDS011;6087;48.982;12.064;2023-11-21T05:22:48;7.20;;;3.93;;
12052;SDS011;6087;48.982;12.064;2023-11-21T05:25:16;5.97;;;4.00;;
12052;SDS011;6087;48.982;12.064;2023-11-21T05:27:44;5.77;;;4.13;;
12052;SDS011;6087;48.982;12.064;2023-11-21T05:30:12;5.97;;;4.03;;
12052;SDS011;6087;48.982;12.064;2023-11-21T05:32:40;6.10;;;4.50;;
12052;SDS011;6087;48.982;12.064;2023-11-21T05:35:08;5.53;;;4.03;;
12052;SDS011;6087;48.982;12.064;2023-11-21T05:37:39;8.80;;;4.03;;
12052;SDS011;6087;48.982;12.064;2023-11-21T05:40:06;4.87;;;4.33;;
12052;SDS011;6087;48.982;12.064;2023-11-21T05:42:35;6.37;;;3.60;;
12052;SDS011;6087;48.982;12.064;2023-11-21T05:45:03;7.33;;;3.90;;
12052;SDS011;6087;48.982;12.064;2023-11-21T05:47:37;5.23;;;4.07;;
12052;SDS011;6087;48.982;12.064;2023-11-21T05:50:06;6.67;;;4.30;;
12052;SDS011;6087;48.982;12.064;2023-11-21T05:52:35;5.97;;;5.03;;
12052;SDS011;6087;48.982;12.064;2023-11-21T05:55:02;4.83;;;4.33;;
12052;SDS011;6087;48.982;12.064;2023-11-21T05:57:32;4.77;;;4.07;;
12052;SDS011;6087;48.982;12.064;2023-11-21T06:00:01;7.37;;;4.20;;
12052;SDS011;6087;48.982;12.064;2023-11-21T06:02:37;8.97;;;4.00;;
12052;SDS011;6087;48.982;12.064;2023-11-21T06:05:04;7.60;;;4.13;;
12052;SDS011;6087;48.982;12.064;2023-11-21T06:07:32;6.83;;;4.43;;
12052;SDS011;6087;48.982;12.064;2023-11-21T06:10:00;5.37;;;4.20;;
12052;SDS011;6087;48.982;12.064;2023-11-21T06:12:27;5.47;;;3.93;;
12052;SDS011;6087;48.982;12.064;2023-11-21T06:15:01;4.43;;;4.03;;
12052;SDS011;6087;48.982;12.064;2023-11-21T06:17:30;6.27;;;4.27;;
12052;SDS011;6087;48.982;12.064;2023-11-21T06:19:58;7.87;;;4.87;;
12052;SDS011;6087;48.982;12.064;2023-11-21T06:22:25;5.80;;;4.43;;
12052;SDS011;6087;48.982;12.064;2023-11-21T06:24:52;5.20;;;3.73;;
12052;SDS011;6087;48.982;12.064;2023-11-21T06:27:19;7.03;;;4.60;;
12052;SDS011;6087;48.982;12.064;2023-11-21T06:29:46;7.93;;;4.30;;
12052;SDS011;6087;48.982;12.064;2023-11-21T06:32:13;5.17;;;3.87;;
12052;SDS011;6087;48.982;12.064;2023-11-21T06:34:41;6.60;;;4.57;;
12052;SDS011;6087;48.982;12.064;2023-11-21T06:37:15;7.73;;;3.87;;
12052;SDS011;6087;48.982;12.064;2023-11-21T06:39:43;5.87;;;4.03;;
12052;SDS011;6087;48.982;12.064;2023-11-21T06:42:09;6.90;;;3.73;;
12052;SDS011;6087;48.982;12.064;2023-11-21T06:44:40;6.00;;;4.53;;
12052;SDS011;6087;48.982;12.064;2023-11-21T06:47:07;6.93;;;4.37;;
12052;SDS011;6087;48.982;12.064;2023-11-21T06:49:34;5.10;;;4.10;;
12052;SDS011;6087;48.982;12.064;2023-11-21T06:52:01;6.80;;;4.00;;
12052;SDS011;6087;48.982;12.064;2023-11-21T06:54:36;7.30;;;4.57;;
12052;SDS011;6087;48.982;12.064;2023-11-21T06:57:03;8.07;;;4.40;;
12052;SDS011;6087;48.982;12.064;2023-11-21T06:59:30;7.07;;;4.27;;
12052;SDS011;6087;48.982;12.064;2023-11-21T07:01:57;6.47;;;4.63;;
12052;SDS011;6087;48.982;12.064;2023-11-21T07:04:24;8.27;;;4.50;;
12052;SDS011;6087;48.982;12.064;2023-11-21T07:06:53;6.10;;;4.10;;
12052;SDS011;6087;48.982;12.064;2023-11-21T07:09:22;7.20;;;4.67;;
12052;SDS011;6087;48.982;12.064;2023-11-21T07:11:52;5.93;;;4.33;;
12052;SDS011;6087;48.982;12.064;2023-11-21T07:14:19;6.03;;;5.00;;
12052;SDS011;6087;48.982;12.064;2023-11-21T07:16:46;6.80;;;4.40;;
12052;SDS011;6087;48.982;12.064;2023-11-21T07:19:13;6.83;;;4.77;;
12052;SDS011;6087;48.982;12.064;2023-11-21T07:21:41;5.27;;;4.27;;
12052;SDS011;6087;48.982;12.064;2023-11-21T07:24:08;7.53;;;4.33;;
12052;SDS011;6087;48.982;12.064;2023-11-21T07:26:36;5.50;;;3.83;;
12052;SDS011;6087;48.982;12.064;2023-11-21T07:29:05;5.23;;;4.10;;
12052;SDS011;6087;48.982;12.064;2023-11-21T07:31:32;7.00;;;5.10;;
12052;SDS011;6087;48.982;12.064;2023-11-21T07:34:00;5.83;;;4.83;;
12052;SDS011;6087;48.982;12.064;2023-11-21T07:36:27;6.00;;;4.40;;
12052;SDS011;6087;48.982;12.064;2023-11-21T07:38:54;6.70;;;3.93;;
12052;SDS011;6087;48.982;12.064;2023-11-21T07:41:21;4.73;;;4.17;;
12052;SDS011;6087;48.982;12.064;2023-11-21T07:43:48;7.73;;;3.70;;
12052;SDS011;6087;48.982;12.064;2023-11-21T07:46:17;8.67;;;4.57;;
12052;SDS011;6087;48.982;12.064;2023-11-21T07:48:45;7.53;;;4.00;;
12052;SDS011;6087;48.982;12.064;2023-11-21T07:51:12;7.50;;;4.70;;
12052;SDS011;6087;48.982;12.064;2023-11-21T07:53:39;4.33;;;3.57;;
12052;SDS011;6087;48.982;12.064;2023-11-21T07:56:06;5.63;;;3.70;;
12052;SDS011;6087;48.982;12.064;2023-11-21T07:58:34;6.13;;;3.60;;
12052;SDS011;6087;48.982;12.064;2023-11-21T08:01:04;6.80;;;4.10;;
12052;SDS011;6087;48.982;12.064;2023-11-21T08:03:33;6.97;;;3.60;;
12052;SDS011;6087;48.982;12.064;2023-11-21T08:06:00;4.77;;;3.63;;
12052;SDS011;6087;48.982;12.064;2023-11-21T08:08:28;3.70;;;3.37;;
12052;SDS011;6087;48.982;12.064;2023-11-21T08:10:58;6.50;;;3.87;;
12052;SDS011;6087;48.982;12.064;2023-11-21T08:13:29;3.23;;;2.93;;
12052;SDS011;6087;48.982;12.064;2023-11-21T08:15:56;3.63;;;2.70;;
12052;SDS011;6087;48.982;12.064;2023-11-21T08:18:27;5.20;;;3.40;;
12052;SDS011;6087;48.982;12.064;2023-11-21T08:20:56;2.90;;;2.50;;
12052;SDS011;6087;48.982;12.064;2023-11-21T08:23:23;3.03;;;2.67;;
12052;SDS011;6087;48.982;12.064;2023-11-21T08:25:51;2.63;;;2.43;;
12052;SDS011;6087;48.982;12.064;2023-11-21T08:28:24;5.00;;;3.00;;
12052;SDS011;6087;48.982;12.064;2023-11-21T08:30:52;5.13;;;2.80;;
12052;SDS011;6087;48.982;12.064;2023-11-21T08:33:19;4.30;;;2.57;;
12052;SDS011;6087;48.982;12.064;2023-11-21T08:35:48;7.30;;;2.77;;
12052;SDS011;6087;48.982;12.064;2023-11-21T08:38:20;8.60;;;3.57;;
12052;SDS011;6087;48.982;12.064;2023-11-21T08:40:46;4.63;;;3.37;;
12052;SDS011;6087;48.982;12.064;2023-11-21T08:43:14;4.03;;;3.03;;
12052;SDS011;6087;48.982;12.064;2023-11-21T08:45:45;6.20;;;2.80;;
12052;SDS011;6087;48.982;12.064;2023-11-21T08:48:12;3.33;;;2.93;;
12052;SDS011;6087;48.982;12.064;2023-11-21T08:50:39;3.13;;;2.57;;
12052;SDS011;6087;48.982;12.064;2023-11-21T08:53:08;4.03;;;2.53;;
12052;SDS011;6087;48.982;12.064;2023-11-21T08:55:37;4.97;;;2.77;;
12052;SDS011;6087;48.982;12.064;2023-11-21T08:58:05;3.97;;;2.73;;
12052;SDS011;6087;48.982;12.064;2023-11-21T09:00:32;2.80;;;2.50;;
12052;SDS011;6087;48.982;12.064;2023-11-21T09:03:00;2.80;;;2.50;;
12052;SDS011;6087;48.982;12.064;2023-11-21T09:05:27;3.63;;;2.60;;
12052;SDS011;6087;48.982;12.064;2023-11-21T09:07:55;4.23;;;2.63;;
12052;SDS011;6087;48.982;12.064;2023-11-21T09:10:22;3.10;;;2.23;;
12052;SDS011;6087;48.982;12.064;2023-11-21T09:12:51;2.63;;;2.20;;
12052;SDS011;6087;48.982;12.064;2023-11-21T09:15:18;2.30;;;2.10;;
12052;SDS011;6087;48.982;12.064;2023-11-21T09:17:47;2.53;;;2.03;;
12052;SDS011;6087;48.982;12.064;2023-11-21T09:20:14;4.63;;;2.50;;
12052;SDS011;6087;48.982;12.064;2023-11-21T09:22:41;3.50;;;2.70;;
12052;SDS011;6087;48.982;12.064;2023-11-21T09:25:09;4.00;;;2.33;;
12052;SDS011;6087;48.982;12.064;2023-11-21T09:27:37;2.30;;;1.80;;
12052;SDS011;6087;48.982;12.064;2023-11-21T09:30:06;2.83;;;1.80;;
12052;SDS011;6087;48.982;12.064;2023-11-21T09:32:35;2.83;;;1.97;;
12052;SDS011;6087;48.982;12.064;2023-11-21T09:35:04;2.67;;;2.40;;
12052;SDS011;6087;48.982;12.064;2023-11-21T09:37:33;2.90;;;1.67;;
12052;SDS011;6087;48.982;12.064;2023-11-21T09:40:01;3.87;;;2.17;;
12052;SDS011;6087;48.982;12.064;2023-11-21T09:42:30;2.33;;;2.13;;
12052;SDS011;6087;48.982;12.064;2023-11-21T09:45:03;2.93;;;2.37;;
12052;SDS011;6087;48.982;12.064;2023-11-21T09:47:38;2.40;;;2.20;;
12052;SDS011;6087;48.982;12.064;2023-11-21T09:50:05;2.87;;;2.60;;
12052;SDS011;6087;48.982;12.064;2023-11-21T09:52:35;1.80;;;1.70;;
12052;SDS011;6087;48.982;12.064;2023-11-21T09:55:13;2.27;;;2.07;;
12052;SDS011;6087;48.982;12.064;2023-11-21T09:57:43;4.43;;;1.80;;
12052;SDS011;6087;48.982;12.064;2023-11-21T10:00:15;3.17;;;2.10;;
12052;SDS011;6087;48.982;12.064;2023-11-21T10:02:45;2.40;;;2.20;;
12052;SDS011;6087;48.982;12.064;2023-11-21T10:05:14;2.93;;;2.13;;
12052;SDS011;6087;48.982;12.064;2023-11-21T10:07:47;3.07;;;1.83;;
12052;SDS011;6087;48.982;12.064;2023-11-21T10:10:19;1.77;;;1.67;;
12052;SDS011;6087;48.982;12.064;2023-11-21T10:12:53;2.10;;;1.93;;
12052;SDS011;6087;48.982;12.064;2023-11-21T10:15:24;2.60;;;1.50;;
12052;SDS011;6087;48.982;12.064;2023-11-21T10:17:54;2.93;;;1.50;;
12052;SDS011;6087;48.982;12.064;2023-11-21T10:20:22;2.43;;;1.80;;
12052;SDS011;6087;48.982;12.064;2023-11-21T10:22:50;3.33;;;1.57;;
12052;SDS011;6087;48.982;12.064;2023-11-21T10:25:21;1.80;;;1.70;;
12052;SDS011;6087;48.982;12.064;2023-11-21T10:27:48;1.73;;;1.63;;
12052;SDS011;6087;48.982;12.064;2023-11-21T10:30:17;1.97;;;1.53;;
12052;SDS011;6087;48.982;12.064;2023-11-21T10:32:45;2.08;;;1.63;;
12052;SDS011;6087;48.982;12.064;2023-11-21T10:35:13;1.93;;;1.73;;
12052;SDS011;6087;48.982;12.064;2023-11-21T10:37:40;4.03;;;2.00;;
12052;SDS011;6087;48.982;12.064;2023-11-21T10:40:08;4.38;;;2.10;;
12052;SDS011;6087;48.982;12.064;2023-11-21T10:42:37;3.50;;;2.47;;
12052;SDS011;6087;48.982;12.064;2023-11-21T10:45:04;2.43;;;2.00;;
12052;SDS011;6087;48.982;12.064;2023-11-21T10:47:37;2.45;;;2.00;;
12052;SDS011;6087;48.982;12.064;2023-11-21T10:50:06;5.10;;;2.67;;
12052;SDS011;6087;48.982;12.064;2023-11-21T10:52:36;2.38;;;2.17;;
12052;SDS011;6087;48.982;12.064;2023-11-21T10:55:08;4.75;;;2.45;;
12052;SDS011;6087;48.982;12.064;2023-11-21T10:57:42;2.55;;;1.95;;
12052;SDS011;6087;48.982;12.064;2023-11-21T11:00:13;1.97;;;1.87;;
12052;SDS011;6087;48.982;12.064;2023-11-21T11:02:44;1.70;;;1.58;;
12052;SDS011;6087;48.982;12.064;2023-11-21T11:05:15;2.42;;;2.00;;
12052;SDS011;6087;48.982;12.064;2023-11-21T11:07:45;2.53;;;1.70;;
12052;SDS011;6087;48.982;12.064;2023-11-21T11:10:17;1.77;;;1.67;;
12052;SDS011;6087;48.982;12.064;2023-11-21T11:12:46;2.22;;;1.83;;
12052;SDS011;6087;48.982;12.064;2023-11-21T11:15:14;2.13;;;1.92;;
12052;SDS011;6087;48.982;12.064;2023-11-21T11:17:42;2.37;;;2.17;;
12052;SDS011;6087;48.982;12.064;2023-11-21T11:20:11;2.97;;;1.77;;
12052;SDS011;6087;48.982;12.064;2023-11-21T11:22:44;4.17;;;1.97;;
12052;SDS011;6087;48.982;12.064;2023-11-21T11:25:45;3.33;;;1.92;;
12052;SDS011;6087;48.982;12.064;2023-11-21T11:28:20;1.85;;;1.70;;
12052;SDS011;6087;48.982;12.064;2023-11-21T11:30:53;3.90;;;2.07;;
12052;SDS011;6087;48.982;12.064;2023-11-21T11:33:31;1.73;;;1.63;;
12052;SDS011;6087;48.982;12.064;2023-11-21T11:36:06;2.70;;;2.30;;
12052;SDS011;6087;48.982;12.064;2023-11-21T11:38:46;2.70;;;2.10;;
12052;SDS011;6087;48.982;12.064;2023-11-21T11:41:15;3.33;;;2.00;;
12052;SDS011;6087;48.982;12.064;2023-11-21T11:43:51;3.03;;;1.75;;
12052;SDS011;6087;48.982;12.064;2023-11-21T11:46:18;2.30;;;2.03;;
12052;SDS011;6087;48.982;12.064;2023-11-21T11:48:46;7.28;;;2.17;;
12052;SDS011;6087;48.982;12.064;2023-11-21T11:51:15;4.20;;;2.20;;
12052;SDS011;6087;48.982;12.064;2023-11-21T11:53:46;3.40;;;2.05;;
12052;SDS011;6087;48.982;12.064;2023-11-21T11:56:24;2.25;;;1.70;;
12052;SDS011;6087;48.982;12.064;2023-11-21T11:58:53;1.92;;;1.83;;
12052;SDS011;6087;48.982;12.064;2023-11-21T12:01:24;2.33;;;1.70;;
12052;SDS011;6087;48.982;12.064;2023-11-21T12:06:56;2.67;;;1.98;;
12052;SDS011;6087;48.982;12.064;2023-11-21T12:09:29;2.67;;;2.00;;
12052;SDS011;6087;48.982;12.064;2023-11-21T12:11:58;1.70;;;1.60;;
12052;SDS011;6087;48.982;12.064;2023-11-21T12:14:26;2.07;;;1.80;;
12052;SDS011;6087;48.982;12.064;2023-11-21T12:16:54;1.77;;;1.63;;
12052;SDS011;6087;48.982;12.064;2023-11-21T12:19:21;2.65;;;2.17;;
12052;SDS011;6087;48.982;12.064;2023-11-21T12:21:48;2.93;;;1.83;;
12052;SDS011;6087;48.982;12.064;2023-11-21T12:24:16;2.20;;;2.00;;
12052;SDS011;6087;48.982;12.064;2023-11-21T12:26:44;2.58;;;2.28;;
12052;SDS011;6087;48.982;12.064;2023-11-21T12:29:11;4.57;;;2.07;;
12052;SDS011;6087;48.982;12.064;2023-11-21T12:31:38;4.23;;;2.20;;
12052;SDS011;6087;48.982;12.064;2023-11-21T12:34:06;2.17;;;2.00;;
12052;SDS011;6087;48.982;12.064;2023-11-21T12:36:36;4.70;;;2.03;;
12052;SDS011;6087;48.982;12.064;2023-11-21T12:39:03;2.23;;;1.70;;
12052;SDS011;6087;48.982;12.064;2023-11-21T12:41:34;3.75;;;2.03;;
12052;SDS011;6087;48.982;12.064;2023-11-21T12:44:02;2.08;;;1.80;;
12052;SDS011;6087;48.982;12.064;2023-11-21T12:46:32;2.60;;;1.98;;
12052;SDS011;6087;48.982;12.064;2023-11-21T12:49:00;1.95;;;1.77;;
12052;SDS011;6087;48.982;12.064;2023-11-21T12:51:27;2.00;;;1.90;;
12052;SDS011;6087;48.982;12.064;2023-11-21T12:53:55;2.15;;;1.92;;
12052;SDS011;6087;48.982;12.064;2023-11-21T12:56:23;3.57;;;2.17;;
12052;SDS011;6087;48.982;12.064;2023-11-21T12:58:53;2.10;;;1.97;;
12052;SDS011;6087;48.982;12.064;2023-11-21T13:01:26;3.03;;;1.85;;
12052;SDS011;6087;48.982;12.064;2023-11-21T13:03:55;3.10;;;1.65;;
12052;SDS011;6087;48.982;12.064;2023-11-21T13:06:24;2.05;;;1.92;;
12052;SDS011;6087;48.982;12.064;2023-11-21T13:08:52;2.40;;;1.97;;
12052;SDS011;6087;48.982;12.064;2023-11-21T13:11:22;2.58;;;1.95;;
12052;SDS011;6087;48.982;12.064;2023-11-21T13:13:51;2.05;;;1.73;;
12052;SDS011;6087;48.982;12.064;2023-11-21T13:16:22;2.63;;;1.77;;
12052;SDS011;6087;48.982;12.064;2023-11-21T13:18:50;2.00;;;1.45;;
12052;SDS011;6087;48.982;12.064;2023-11-21T13:21:17;1.67;;;1.58;;
12052;SDS011;6087;48.982;12.064;2023-11-21T13:23:44;3.03;;;1.60;;
12052;SDS011;6087;48.982;12.064;2023-11-21T13:26:13;2.25;;;1.92;;
12052;SDS011;6087;48.982;12.064;2023-11-21T13:28:41;3.47;;;2.15;;
12052;SDS011;6087;48.982;12.064;2023-11-21T13:31:11;2.00;;;1.90;;
12052;SDS011;6087;48.982;12.064;2023-11-21T13:33:46;2.42;;;2.22;;
12052;SDS011;6087;48.982;12.064;2023-11-21T13:36:18;1.95;;;1.85;;
12052;SDS011;6087;48.982;12.064;2023-11-21T13:38:48;2.72;;;2.22;;
12052;SDS011;6087;48.982;12.064;2023-11-21T13:41:15;2.50;;;2.27;;
12052;SDS011;6087;48.982;12.064;2023-11-21T13:43:45;3.37;;;2.43;;
12052;SDS011;6087;48.982;12.064;2023-11-21T13:46:18;4.03;;;2.30;;
12052;SDS011;6087;48.982;12.064;2023-11-21T13:48:48;2.50;;;2.30;;
12052;SDS011;6087;48.982;12.064;2023-11-21T13:51:22;2.67;;;2.47;;
12052;SDS011;6087;48.982;12.064;2023-11-21T13:53:56;2.88;;;2.47;;
12052;SDS011;6087;48.982;12.064;2023-11-21T13:56:24;2.95;;;2.40;;
12052;SDS011;6087;48.982;12.064;2023-11-21T13:58:53;2.10;;;2.00;;
12052;SDS011;6087;48.982;12.064;2023-11-21T14:01:21;3.33;;;2.10;;
12052;SDS011;6087;48.982;12.064;2023-11-21T14:04:10;5.23;;;2.80;;
12052;SDS011;6087;48.982;12.064;2023-11-21T14:06:46;2.78;;;1.88;;
12052;SDS011;6087;48.982;12.064;2023-11-21T14:09:14;3.73;;;2.67;;
12052;SDS011;6087;48.982;12.064;2023-11-21T14:11:48;3.88;;;2.92;;
12052;SDS011;6087;48.982;12.064;2023-11-21T14:14:17;3.93;;;3.37;;
12052;SDS011;6087;48.982;12.064;2023-11-21T14:16:44;4.60;;;3.20;;
12052;SDS011;6087;48.982;12.064;2023-11-21T14:19:11;2.37;;;2.20;;
12052;SDS011;6087;48.982;12.064;2023-11-21T14:21:42;3.20;;;2.80;;
12052;SDS011;6087;48.982;12.064;2023-11-21T14:24:11;2.63;;;2.00;;
12052;SDS011;6087;48.982;12.064;2023-11-21T14:26:39;3.25;;;2.38;;
12052;SDS011;6087;48.982;12.064;2023-11-21T14:29:07;3.17;;;2.27;;
12052;SDS011;6087;48.982;12.064;2023-11-21T14:31:37;2.73;;;2.20;;
12052;SDS011;6087;48.982;12.064;2023-11-21T14:34:04;2.45;;;2.20;;
12052;SDS011;6087;48.982;12.064;2023-11-21T14:36:32;4.28;;;2.20;;
12052;SDS011;6087;48.982;12.064;2023-11-21T14:38:59;2.63;;;2.25;;
12052;SDS011;6087;48.982;12.064;2023-11-21T14:41:31;2.28;;;2.08;;
12052;SDS011;6087;48.982;12.064;2023-11-21T14:44:00;2.40;;;2.20;;
12052;SDS011;6087;48.982;12.064;2023-11-21T14:46:28;3.93;;;2.90;;
12052;SDS011;6087;48.982;12.064;2023-11-21T14:48:56;3.37;;;2.67;;
12052;SDS011;6087;48.982;12.064;2023-11-21T14:51:26;3.67;;;2.60;;
12052;SDS011;6087;48.982;12.064;2023-11-21T14:54:03;4.10;;;2.77;;
12052;SDS011;6087;48.982;12.064;2023-11-21T14:56:33;2.47;;;2.28;;
12052;SDS011;6087;48.982;12.064;2023-11-21T14:59:00;3.37;;;2.40;;
12052;SDS011;6087;48.982;12.064;2023-11-21T15:01:34;3.53;;;2.60;;